Time;durP1;ratioP1;P1;durP2;ratioP2;P2;SDS_P1;SDS_P2;PMS_P1;PMS_P2;Temp;Humidity;BMP_temperature;BMP_pressure;BME280_temperature;BME280_humidity;BME280_pressure;Samples;Min_cycle;Max_cycle;Signal;HPM_P1;HPM_P2
2022/03/28 00:04:25;;;;;;;19.33;4.63;;;7.60;99.90;;;;;;10480820;28;20512;-75
2022/03/28 00:09:47;;;;;;;12.80;5.20;;;7.60;99.90;;;;;;10479583;28;20228;-81
2022/03/28 00:15:09;;;;;;;14.13;4.93;;;7.60;99.90;;;;;;10479723;28;20543;-75
2022/03/28 00:20:31;;;;;;;12.83;4.83;;;7.50;99.90;;;;;;10505262;28;20222;-75
2022/03/28 00:25:53;;;;;;;13.37;5.13;;;7.50;99.90;;;;;;10496592;28;20248;-77
2022/03/28 00:31:16;;;;;;;16.90;4.80;;;7.40;99.90;;;;;;10478927;28;20195;-76
2022/03/28 00:36:37;;;;;;;13.70;5.13;;;7.30;99.90;;;;;;10464851;28;20584;-75
2022/03/28 00:41:59;;;;;;;19.87;5.07;;;7.30;99.90;;;;;;10453641;28;20201;-76
2022/03/28 00:47:21;;;;;;;9.60;4.20;;;7.20;99.90;;;;;;10437330;28;20225;-75
2022/03/28 00:52:44;;;;;;;14.17;4.90;;;7.20;99.90;;;;;;10438093;28;20195;-75
2022/03/28 00:58:06;;;;;;;14.63;4.63;;;7.20;99.90;;;;;;10478181;28;20266;-76
2022/03/28 01:03:29;;;;;;;15.47;4.60;;;7.10;99.90;;;;;;10479537;28;20209;-76
2022/03/28 01:08:52;;;;;;;11.90;4.63;;;7.10;99.90;;;;;;10478901;28;20619;-81
2022/03/28 01:14:15;;;;;;;15.93;5.17;;;7.00;99.90;;;;;;10478366;28;20584;-78
2022/03/28 01:19:37;;;;;;;12.27;4.73;;;7.00;99.90;;;;;;10494361;28;20314;-75
2022/03/28 01:25:01;;;;;;;10.80;4.63;;;7.00;99.90;;;;;;10501643;28;20202;-76
2022/03/28 01:30:23;;;;;;;8.60;3.93;;;7.00;99.90;;;;;;10477152;28;20232;-76
2022/03/28 01:35:45;;;;;;;12.23;4.20;;;6.90;99.90;;;;;;10477187;28;20280;-76
2022/03/28 01:41:07;;;;;;;11.10;4.27;;;6.90;99.90;;;;;;10482366;28;20205;-75
2022/03/28 01:46:29;;;;;;;10.60;4.47;;;6.80;99.90;;;;;;10479305;28;20226;-79
2022/03/28 01:51:51;;;;;;;19.30;4.40;;;6.80;99.90;;;;;;10478007;28;20193;-77
2022/03/28 01:57:13;;;;;;;14.33;4.37;;;6.80;99.90;;;;;;10477647;28;20403;-81
2022/03/28 02:02:35;;;;;;;13.13;4.17;;;6.80;99.90;;;;;;10476621;28;20206;-76
2022/03/28 02:07:59;;;;;;;9.17;4.13;;;6.70;99.90;;;;;;10463448;28;20231;-78
2022/03/28 02:13:21;;;;;;;19.27;4.83;;;6.60;99.90;;;;;;10478318;28;20217;-77
2022/03/28 02:18:43;;;;;;;10.93;4.13;;;6.60;99.90;;;;;;10485782;28;20200;-77
2022/03/28 02:24:05;;;;;;;12.23;4.67;;;6.60;99.90;;;;;;10513854;28;20205;-75
2022/03/28 02:29:27;;;;;;;11.30;4.73;;;6.60;99.90;;;;;;10484798;28;20227;-75
2022/03/28 02:34:49;;;;;;;10.27;5.23;;;6.60;99.90;;;;;;10484462;28;20244;-77
2022/03/28 02:40:12;;;;;;;14.87;5.00;;;6.50;99.90;;;;;;10484431;28;20274;-75
2022/03/28 02:45:36;;;;;;;12.70;4.67;;;6.50;99.90;;;;;;10483911;28;20240;-76
2022/03/28 02:50:58;;;;;;;12.30;4.50;;;6.40;99.90;;;;;;10469213;28;20210;-77
2022/03/28 02:56:20;;;;;;;11.37;4.60;;;6.40;99.90;;;;;;10483854;28;20222;-76
2022/03/28 03:01:44;;;;;;;14.80;5.10;;;6.30;99.90;;;;;;10497268;28;20202;-77
2022/03/28 03:07:06;;;;;;;12.17;5.10;;;6.40;99.90;;;;;;10482012;28;20529;-75
2022/03/28 03:12:28;;;;;;;10.67;4.70;;;6.30;99.90;;;;;;10482149;28;20202;-78
2022/03/28 03:17:51;;;;;;;8.90;5.17;;;6.30;99.90;;;;;;10484752;28;20198;-75
2022/03/28 03:23:13;;;;;;;10.60;5.30;;;6.30;99.90;;;;;;10523175;28;20194;-78
2022/03/28 03:28:35;;;;;;;15.50;4.90;;;6.20;99.90;;;;;;10481751;28;20226;-78
2022/03/28 03:33:57;;;;;;;12.50;4.43;;;6.20;99.90;;;;;;10467069;28;20199;-75
2022/03/28 03:39:21;;;;;;;13.67;5.23;;;6.20;99.90;;;;;;10482044;28;20302;-80
2022/03/28 03:44:43;;;;;;;16.27;4.93;;;6.10;99.90;;;;;;10481473;28;20199;-78
2022/03/28 03:50:06;;;;;;;11.10;5.00;;;6.10;99.90;;;;;;10480437;28;20245;-75
2022/03/28 03:55:28;;;;;;;12.67;5.03;;;6.10;99.90;;;;;;10481518;28;20557;-76
2022/03/28 04:00:50;;;;;;;16.37;5.77;;;6.10;99.90;;;;;;10439101;28;20203;-76
2022/03/28 04:06:12;;;;;;;14.60;5.07;;;6.10;99.90;;;;;;10439319;28;20268;-77
2022/03/28 04:11:34;;;;;;;11.33;4.97;;;6.00;99.90;;;;;;10443178;28;20193;-77
2022/03/28 04:16:56;;;;;;;12.13;5.77;;;5.90;99.90;;;;;;10455103;28;20202;-75
2022/03/28 04:22:18;;;;;;;12.50;5.47;;;5.90;99.90;;;;;;10517381;28;20202;-75
2022/03/28 04:27:41;;;;;;;11.27;5.47;;;5.90;99.90;;;;;;10483310;28;20295;-76
2022/03/28 04:33:04;;;;;;;13.30;5.67;;;5.90;99.90;;;;;;10478513;28;20196;-75
2022/03/28 04:38:26;;;;;;;14.10;5.10;;;5.90;99.90;;;;;;10479402;28;20228;-76
2022/03/28 04:43:48;;;;;;;10.23;4.83;;;5.90;99.90;;;;;;10477815;28;20193;-74
2022/03/28 04:49:13;;;;;;;14.43;5.73;;;5.90;99.90;;;;;;10478106;28;20221;-76
2022/03/28 04:54:36;;;;;;;14.00;5.47;;;5.90;99.90;;;;;;10478423;28;20270;-76
2022/03/28 04:59:58;;;;;;;12.40;5.00;;;5.90;99.90;;;;;;10479055;28;20225;-75
2022/03/28 05:05:23;;;;;;;12.27;5.83;;;6.00;99.90;;;;;;10478721;28;20197;-75
2022/03/28 05:10:46;;;;;;;9.10;5.53;;;6.00;99.90;;;;;;10477520;28;20197;-84
2022/03/28 05:16:08;;;;;;;11.90;5.33;;;6.10;99.90;;;;;;10477373;28;20209;-76
2022/03/28 05:21:30;;;;;;;8.50;5.10;;;6.10;99.90;;;;;;10510154;28;20192;-75
2022/03/28 05:26:52;;;;;;;10.60;5.00;;;6.10;99.90;;;;;;10487259;28;20226;-75
2022/03/28 05:32:14;;;;;;;9.90;4.87;;;6.10;99.90;;;;;;10478095;28;20204;-75
2022/03/28 05:37:36;;;;;;;10.97;5.43;;;6.20;99.90;;;;;;10452648;28;20425;-76
2022/03/28 05:42:58;;;;;;;9.90;5.57;;;6.20;99.90;;;;;;10447787;28;20188;-76
2022/03/28 05:48:21;;;;;;;12.37;5.50;;;6.30;99.90;;;;;;10477426;28;20225;-78
2022/03/28 05:53:43;;;;;;;35.03;16.37;;;6.40;99.90;;;;;;10478716;28;20193;-77
2022/03/28 05:59:07;;;;;;;15.90;8.37;;;6.40;99.90;;;;;;10482150;28;20224;-76
2022/03/28 06:04:29;;;;;;;11.10;6.20;;;6.60;99.90;;;;;;10485104;28;20196;-76
2022/03/28 06:09:51;;;;;;;21.83;7.33;;;6.60;99.90;;;;;;10485615;28;20229;-78
2022/03/28 06:15:13;;;;;;;24.73;11.27;;;6.90;99.90;;;;;;10485875;28;20197;-77
2022/03/28 06:20:35;;;;;;;10.50;6.27;;;7.20;99.90;;;;;;10515825;28;20201;-77
2022/03/28 06:25:57;;;;;;;17.93;8.43;;;7.20;99.90;;;;;;10503070;28;20215;-77
2022/03/28 06:31:19;;;;;;;11.57;6.47;;;7.20;99.90;;;;;;10485767;28;20249;-77
2022/03/28 06:36:44;;;;;;;11.40;5.23;;;7.20;99.90;;;;;;10487350;28;20238;-76
2022/03/28 06:42:07;;;;;;;11.83;5.90;;;7.40;99.90;;;;;;10499595;28;20238;-77
2022/03/28 06:47:30;;;;;;;10.30;6.47;;;7.40;99.90;;;;;;10498385;28;20259;-84
2022/03/28 06:52:53;;;;;;;11.87;6.70;;;7.60;99.90;;;;;;10487946;28;20223;-80
2022/03/28 06:58:16;;;;;;;24.13;10.67;;;9.10;99.90;;;;;;10483926;28;20223;-81
2022/03/28 07:03:38;;;;;;;27.00;10.63;;;10.50;99.90;;;;;;10483598;28;20522;-78
2022/03/28 07:09:04;;;;;;;17.23;8.17;;;11.90;99.90;;;;;;10467668;28;20526;-78
2022/03/28 07:14:26;;;;;;;13.55;8.07;;;12.70;99.90;;;;;;10482316;28;20256;-77
2022/03/28 07:19:48;;;;;;;7.00;4.13;;;13.40;99.90;;;;;;10487220;28;20199;-88
2022/03/28 07:25:10;;;;;;;9.82;4.85;;;13.90;99.50;;;;;;10507599;28;20198;-80
2022/03/28 07:30:32;;;;;;;12.27;5.88;;;14.60;98.00;;;;;;10485460;28;20292;-77
2022/03/28 07:35:55;;;;;;;9.65;4.85;;;15.20;93.70;;;;;;10427577;28;20454;-78
2022/03/28 07:41:17;;;;;;;10.25;5.85;;;15.60;92.60;;;;;;10373335;28;20270;-80
2022/03/28 07:46:40;;;;;;;17.20;5.43;;;16.10;87.50;;;;;;10402265;28;20418;-78
2022/03/28 07:52:03;;;;;;;14.10;5.03;;;16.00;84.20;;;;;;10375560;28;20500;-78
2022/03/28 07:57:24;;;;;;;9.07;4.50;;;16.10;82.60;;;;;;10375402;28;20304;-77
2022/03/28 08:02:47;;;;;;;7.47;3.40;;;16.50;74.20;;;;;;10368855;28;20492;-80
2022/03/28 08:08:11;;;;;;;10.43;4.57;;;16.70;73.30;;;;;;10353994;28;20208;-87
2022/03/28 08:13:33;;;;;;;8.98;3.78;;;17.00;61.80;;;;;;10375783;28;20308;-79
2022/03/28 08:18:55;;;;;;;10.52;4.15;;;17.20;61.90;;;;;;10389673;28;20233;-90
2022/03/28 08:24:18;;;;;;;7.30;3.65;;;17.60;56.60;;;;;;10392858;28;20204;-86
2022/03/28 08:29:40;;;;;;;13.75;3.90;;;18.00;53.30;;;;;;10392248;28;20414;-78
2022/03/28 08:35:04;;;;;;;19.13;3.88;;;17.50;51.90;;;;;;10369089;28;20242;-88
2022/03/28 08:40:26;;;;;;;66.60;6.05;;;16.80;57.50;;;;;;10376559;28;20233;-88
2022/03/28 08:45:49;;;;;;;10.82;3.70;;;17.00;57.20;;;;;;10337800;28;20212;-80
2022/03/28 08:51:13;;;;;;;10.60;3.83;;;17.30;55.50;;;;;;10390137;28;20223;-79
2022/03/28 08:56:36;;;;;;;17.67;3.97;;;;;;;;;;10393949;28;20277;-82
2022/03/28 09:02:03;;;;;;;62.33;5.57;;;18.10;46.90;;;;;;10370359;28;20200;-83
2022/03/28 09:07:28;;;;;;;5.07;3.20;;;17.30;48.30;;;;;;10385497;28;20192;-81
2022/03/28 09:13:06;;;;;;;12.65;3.83;;;17.30;50.80;;;;;;10378131;28;20254;-81
2022/03/28 09:18:32;;;;;;;12.13;3.30;;;17.80;49.90;;;;;;10398268;28;20242;-77
2022/03/28 09:23:55;;;;;;;11.70;3.80;;;18.50;46.40;;;;;;10420130;28;20214;-81
2022/03/28 09:29:17;;;;;;;17.20;3.67;;;18.70;43.90;;;;;;10384724;28;20200;-80
2022/03/28 09:34:39;;;;;;;14.52;3.83;;;18.50;42.90;;;;;;10383291;28;20254;-77
2022/03/28 09:40:39;;;;;;;5.90;2.60;;;18.10;44.10;;;;;;10390099;28;20266;-80
2022/03/28 09:46:01;;;;;;;8.25;3.55;;;18.80;42.60;;;;;;10391832;28;20243;-79
2022/03/28 09:51:27;;;;;;;15.48;4.07;;;19.30;38.50;;;;;;10392753;28;20381;-77
2022/03/28 09:57:07;;;;;;;5.82;3.33;;;19.10;38.20;;;;;;10378241;28;20531;-86
2022/03/28 10:02:35;;;;;;;10.13;3.58;;;19.40;36.60;;;;;;10389850;28;20205;-78
2022/03/28 10:07:59;;;;;;;14.82;4.05;;;19.20;35.90;;;;;;10390655;28;20197;-81
2022/03/28 10:13:22;;;;;;;7.88;3.63;;;19.50;35.50;;;;;;10391470;28;20412;-83
2022/03/28 10:18:45;;;;;;;10.00;3.97;;;19.80;35.20;;;;;;10360363;28;20238;-87
2022/03/28 10:24:14;;;;;;;9.75;3.58;;;20.20;34.10;;;;;;10431485;28;20251;-79
2022/03/28 10:29:38;;;;;;;21.90;5.05;;;20.60;33.30;;;;;;10364651;28;20375;-82
2022/03/28 10:35:06;;;;;;;13.00;5.65;;;20.30;32.50;;;;;;10365963;28;20250;-82
2022/03/28 10:40:33;;;;;;;17.50;5.30;;;20.10;32.20;;;;;;10387449;28;20228;-78
2022/03/28 10:45:57;;;;;;;20.25;6.03;;;19.80;32.30;;;;;;10394137;28;20212;-78
2022/03/28 10:51:26;;;;;;;15.27;4.13;;;19.60;33.40;;;;;;10395522;28;20288;-80
2022/03/28 10:56:49;;;;;;;14.25;4.43;;;19.70;33.30;;;;;;10396280;28;20227;-79
2022/03/28 11:02:28;;;;;;;14.98;4.95;;;19.40;32.10;;;;;;10401370;28;20527;-84
2022/03/28 11:07:52;;;;;;;11.18;4.15;;;19.60;32.40;;;;;;10398610;28;20193;-87
2022/03/28 11:13:15;;;;;;;28.20;3.88;;;19.60;32.90;;;;;;10399141;28;20554;-87
2022/03/28 11:18:37;;;;;;;10.63;3.72;;;19.50;33.00;;;;;;10395883;28;20246;-81
2022/03/28 11:24:09;;;;;;;12.02;4.35;;;19.00;34.20;;;;;;10423961;28;20411;-77
2022/03/28 11:29:34;;;;;;;9.98;3.33;;;18.90;35.40;;;;;;10413660;28;20199;-85
2022/03/28 11:34:56;;;;;;;11.57;3.92;;;19.10;34.30;;;;;;10385491;28;20254;-85
2022/03/28 11:40:19;;;;;;;7.32;2.95;;;18.50;35.10;;;;;;10394561;28;20227;-88
2022/03/28 11:45:49;;;;;;;9.18;3.58;;;18.30;35.90;;;;;;10396615;28;20202;-78
2022/03/28 11:51:16;;;;;;;9.65;2.97;;;18.30;36.10;;;;;;10396979;28;20220;-82
2022/03/28 12:02:20;;;;;;;8.90;3.13;;;18.80;34.70;;;;;;10408476;28;20253;-79
2022/03/28 12:07:43;;;;;;;6.30;2.67;;;18.80;34.50;;;;;;10379090;28;20200;-79
2022/03/28 12:13:07;;;;;;;15.75;3.67;;;18.40;36.30;;;;;;10392347;28;20440;-79
2022/03/28 12:18:30;;;;;;;9.05;3.17;;;18.30;36.90;;;;;;10372282;28;20325;-77
2022/03/28 12:23:52;;;;;;;5.68;3.20;;;18.10;37.30;;;;;;10404790;28;20272;-79
2022/03/28 12:29:15;;;;;;;14.77;4.82;;;17.90;38.40;;;;;;10406572;28;20203;-78
2022/03/28 12:34:37;;;;;;;7.68;3.42;;;17.00;40.70;;;;;;10399028;28;20219;-80
2022/03/28 12:40:00;;;;;;;13.27;5.82;;;17.10;43.30;;;;;;10385195;28;20254;-88
2022/03/28 12:45:27;;;;;;;7.13;4.10;;;16.50;45.20;;;;;;10376388;28;20195;-84
2022/03/28 12:50:58;;;;;;;11.80;4.05;;;15.70;49.00;;;;;;10397706;28;20222;-77
2022/03/28 12:56:21;;;;;;;7.65;3.20;;;15.40;55.70;;;;;;10385633;28;20200;-81
2022/03/28 13:01:45;;;;;;;6.82;3.10;;;15.30;60.40;;;;;;10393100;28;20212;-82
2022/03/28 13:07:08;;;;;;;18.35;4.32;;;15.70;62.40;;;;;;10401176;28;20212;-82
2022/03/28 13:12:41;;;;;;;9.50;3.67;;;15.40;64.50;;;;;;10392548;28;20207;-82
2022/03/28 13:18:11;;;;;;;6.75;3.13;;;15.20;69.00;;;;;;10380539;28;20596;-84
2022/03/28 13:23:35;;;;;;;9.23;3.53;;;15.10;74.80;;;;;;10389514;28;20229;-83
2022/03/28 13:29:39;;;;;;;9.20;3.55;;;15.30;72.90;;;;;;10371679;28;20306;-77
2022/03/28 13:35:03;;;;;;;15.85;4.30;;;15.20;71.20;;;;;;10386157;28;20230;-84
2022/03/28 13:40:25;;;;;;;10.75;4.50;;;14.50;79.20;;;;;;10390256;28;20570;-81
2022/03/28 13:45:48;;;;;;;7.80;4.13;;;14.50;82.50;;;;;;10413787;28;20200;-81
2022/03/28 13:51:11;;;;;;;9.73;3.55;;;14.40;81.80;;;;;;10410538;28;20379;-80
2022/03/28 13:56:50;;;;;;;52.50;6.43;;;14.10;86.60;;;;;;10406924;28;20201;-83
2022/03/28 14:02:12;;;;;;;9.90;5.60;;;13.90;88.70;;;;;;10404031;28;20433;-81
2022/03/28 14:07:35;;;;;;;9.80;6.10;;;13.30;93.20;;;;;;10408276;28;20206;-81
2022/03/28 14:12:57;;;;;;;14.03;6.87;;;13.00;95.10;;;;;;10400305;28;20201;-79
2022/03/28 14:18:22;;;;;;;18.83;8.17;;;12.50;97.40;;;;;;10407427;28;20975;-80
2022/03/28 14:23:44;;;;;;;9.67;5.87;;;12.10;99.30;;;;;;10398040;28;20216;-79
2022/03/28 14:29:06;;;;;;;11.87;6.03;;;11.50;99.90;;;;;;10354773;28;20511;-82
2022/03/28 14:34:28;;;;;;;16.83;5.67;;;11.00;99.90;;;;;;10396449;28;20232;-83
2022/03/28 14:39:50;;;;;;;9.60;4.60;;;10.90;99.90;;;;;;10399234;28;20234;-78
2022/03/28 14:45:13;;;;;;;9.73;4.80;;;10.90;99.90;;;;;;10416194;28;20223;-78
2022/03/28 14:50:35;;;;;;;9.57;4.50;;;10.60;99.90;;;;;;10398643;28;20232;-80
2022/03/28 14:55:57;;;;;;;15.50;4.00;;;10.60;99.90;;;;;;10386732;28;20198;-87
2022/03/28 15:01:33;;;;;;;10.63;4.70;;;10.50;99.90;;;;;;10386535;28;20233;-81
2022/03/28 15:06:55;;;;;;;23.97;5.20;;;10.40;99.90;;;;;;10399040;28;20191;-80
2022/03/28 15:12:17;;;;;;;14.77;4.33;;;10.40;99.90;;;;;;10336546;28;20833;-79
2022/03/28 15:17:39;;;;;;;12.37;4.83;;;10.20;99.90;;;;;;10382062;28;20218;-79
2022/03/28 15:23:01;;;;;;;6.90;4.53;;;10.00;99.90;;;;;;10390340;28;20208;-80
2022/03/28 15:28:23;;;;;;;9.53;4.70;;;9.80;99.90;;;;;;10433295;28;20210;-79
2022/03/28 15:33:45;;;;;;;11.37;4.70;;;9.80;99.90;;;;;;10429609;28;20259;-79
2022/03/28 15:39:09;;;;;;;8.50;4.17;;;9.70;99.90;;;;;;10402697;28;20314;-82
2022/03/28 15:44:31;;;;;;;15.37;5.13;;;9.70;99.90;;;;;;10385087;28;20204;-80
2022/03/28 15:49:55;;;;;;;18.57;6.33;;;9.70;99.90;;;;;;10386930;28;20199;-79
2022/03/28 15:55:17;;;;;;;8.93;6.00;;;9.60;99.90;;;;;;10385503;28;20701;-79
2022/03/28 16:00:39;;;;;;;7.63;5.20;;;9.40;99.90;;;;;;10385940;28;20231;-81
2022/03/28 16:06:01;;;;;;;11.67;5.80;;;9.40;99.90;;;;;;10399880;28;20199;-81
2022/03/28 16:11:23;;;;;;;10.73;5.37;;;9.30;99.90;;;;;;10394333;28;20204;-82
2022/03/28 16:16:52;;;;;;;16.20;6.77;;;9.30;99.90;;;;;;10398629;28;20200;-80
2022/03/28 16:22:15;;;;;;;15.03;7.10;;;9.20;99.90;;;;;;10392803;28;20204;-81
2022/03/28 16:27:36;;;;;;;15.83;7.43;;;9.10;99.90;;;;;;10397235;28;20203;-79
2022/03/28 16:32:58;;;;;;;16.97;7.43;;;8.90;99.90;;;;;;10360385;28;20282;-80
2022/03/28 16:38:23;;;;;;;17.50;7.70;;;8.80;99.90;;;;;;10383362;28;20297;-80
2022/03/28 16:43:46;;;;;;;13.10;7.17;;;8.80;99.90;;;;;;10383085;28;20227;-84
2022/03/28 16:49:08;;;;;;;13.37;7.30;;;8.60;99.90;;;;;;10413740;28;20197;-80
2022/03/28 16:54:30;;;;;;;11.97;7.37;;;8.70;99.90;;;;;;10382428;28;20294;-79
2022/03/28 16:59:52;;;;;;;13.50;7.70;;;8.60;99.90;;;;;;10396827;28;20226;-79
2022/03/28 17:05:15;;;;;;;14.10;7.77;;;8.60;99.90;;;;;;10382714;28;20234;-80
2022/03/28 17:10:37;;;;;;;17.57;7.97;;;8.60;99.90;;;;;;10374312;28;20217;-80
2022/03/28 17:15:59;;;;;;;14.87;8.03;;;8.60;99.90;;;;;;10357032;28;20200;-82
2022/03/28 17:21:22;;;;;;;11.33;7.37;;;8.60;99.90;;;;;;10375760;28;20237;-79
2022/03/28 17:26:44;;;;;;;10.60;6.80;;;8.60;99.90;;;;;;10380917;28;20204;-86
2022/03/28 17:32:06;;;;;;;21.30;10.43;;;8.60;99.90;;;;;;10410423;28;20199;-80
2022/03/28 17:37:29;;;;;;;17.10;9.00;;;8.60;99.90;;;;;;10387039;28;20259;-81
2022/03/28 17:43:08;;;;;;;15.23;8.60;;;8.50;99.90;;;;;;10400841;28;20201;-86
2022/03/28 17:48:30;;;;;;;20.07;11.07;;;8.40;99.90;;;;;;10401415;28;20495;-82
2022/03/28 17:53:52;;;;;;;12.77;8.30;;;8.30;99.90;;;;;;10405008;28;20188;-83
2022/03/28 17:59:16;;;;;;;16.30;11.13;;;8.30;99.90;;;;;;10399273;28;20300;-81
2022/03/28 18:04:38;;;;;;;17.67;9.60;;;8.40;99.90;;;;;;10415061;28;20260;-84
2022/03/28 18:10:05;;;;;;;21.93;10.17;;;8.50;99.90;;;;;;10416900;28;20225;-85
2022/03/28 18:15:28;;;;;;;48.13;27.97;;;8.40;99.90;;;;;;10401987;28;20221;-85
2022/03/28 18:20:53;;;;;;;57.40;38.20;;;8.40;99.90;;;;;;10400141;28;20224;-85
2022/03/28 18:26:15;;;;;;;20.23;12.73;;;8.40;99.90;;;;;;10382363;28;20206;-85
2022/03/28 18:31:40;;;;;;;31.33;12.70;;;8.40;99.90;;;;;;10414951;28;20209;-85
2022/03/28 18:37:03;;;;;;;18.90;10.93;;;8.40;99.90;;;;;;10414305;28;20230;-79
2022/03/28 18:42:25;;;;;;;22.00;13.67;;;8.40;99.90;;;;;;10389080;28;20398;-84
2022/03/28 18:47:48;;;;;;;49.20;35.77;;;8.30;99.90;;;;;;10413789;28;20525;-79
2022/03/28 18:53:10;;;;;;;19.23;12.93;;;8.30;99.90;;;;;;10408736;28;20201;-85
2022/03/28 18:58:43;;;;;;;19.73;12.07;;;8.40;99.90;;;;;;10356999;28;20306;-84
2022/03/28 19:04:05;;;;;;;18.20;11.60;;;8.30;99.90;;;;;;10365554;28;20360;-79
2022/03/28 19:09:28;;;;;;;26.37;11.70;;;8.30;99.90;;;;;;10363201;28;20200;-85
2022/03/28 19:14:51;;;;;;;21.73;11.53;;;8.30;99.90;;;;;;10412803;28;20195;-85
2022/03/28 19:20:15;;;;;;;23.70;12.03;;;8.30;99.90;;;;;;10416675;28;20224;-84
2022/03/28 19:25:37;;;;;;;16.97;11.80;;;8.30;99.90;;;;;;10403850;28;20194;-84
2022/03/28 19:31:00;;;;;;;14.83;10.93;;;8.30;99.90;;;;;;10433765;28;20202;-81
2022/03/28 19:36:22;;;;;;;18.60;10.63;;;8.30;99.90;;;;;;10346174;28;20246;-82
2022/03/28 19:41:44;;;;;;;35.50;25.63;;;8.20;99.90;;;;;;10379316;28;20219;-81
2022/03/28 19:47:06;;;;;;;17.07;12.13;;;8.30;99.90;;;;;;10406954;28;20194;-80
2022/03/28 19:52:28;;;;;;;22.70;11.83;;;8.30;99.90;;;;;;10405696;28;20205;-79
2022/03/28 19:57:51;;;;;;;22.70;11.80;;;8.30;99.90;;;;;;10403596;28;20221;-85
2022/03/28 20:03:13;;;;;;;17.57;10.30;;;8.30;99.90;;;;;;10400645;28;20197;-86
2022/03/28 20:08:35;;;;;;;18.23;12.07;;;8.20;99.90;;;;;;10398492;28;20525;-79
2022/03/28 20:13:57;;;;;;;15.10;10.43;;;8.30;99.90;;;;;;10385540;28;20221;-79
2022/03/28 20:19:19;;;;;;;14.53;10.70;;;8.30;99.90;;;;;;10386590;28;20227;-79
2022/03/28 20:24:41;;;;;;;19.40;11.47;;;8.30;99.90;;;;;;10346810;28;20198;-79
2022/03/28 20:30:04;;;;;;;14.57;10.20;;;8.20;99.90;;;;;;10389021;28;20226;-79
2022/03/28 20:35:26;;;;;;;19.37;11.53;;;8.20;99.90;;;;;;10403686;28;20301;-82
2022/03/28 20:40:49;;;;;;;17.43;11.43;;;8.20;99.90;;;;;;10387766;28;20238;-85
2022/03/28 20:46:11;;;;;;;20.77;11.93;;;8.30;99.90;;;;;;10399426;28;20199;-86
2022/03/28 20:51:35;;;;;;;17.63;11.27;;;8.20;99.90;;;;;;10386264;28;20221;-81
2022/03/28 20:56:59;;;;;;;19.20;11.57;;;8.20;99.90;;;;;;10370367;28;20202;-84
2022/03/28 21:02:21;;;;;;;18.47;11.77;;;8.20;99.90;;;;;;10383772;28;20283;-87
2022/03/28 21:07:43;;;;;;;18.50;11.57;;;8.10;99.90;;;;;;10382504;28;20268;-79
2022/03/28 21:13:06;;;;;;;27.50;17.73;;;8.20;99.90;;;;;;10396001;28;20199;-79
2022/03/28 21:18:29;;;;;;;27.40;16.47;;;8.10;99.90;;;;;;10402771;28;20218;-79
2022/03/28 21:23:52;;;;;;;20.87;15.10;;;8.20;99.90;;;;;;10341900;28;20206;-83
2022/03/28 21:29:14;;;;;;;22.93;12.30;;;8.10;99.90;;;;;;10378765;28;20281;-79
2022/03/28 21:34:37;;;;;;;22.93;12.17;;;8.10;99.90;;;;;;10385071;28;20321;-87
2022/03/28 21:40:00;;;;;;;23.13;12.30;;;8.10;99.90;;;;;;10367705;28;20238;-79
2022/03/28 21:45:23;;;;;;;21.77;12.93;;;8.00;99.90;;;;;;10394935;28;20285;-79
2022/03/28 21:50:45;;;;;;;19.73;11.97;;;8.00;99.90;;;;;;10381695;28;20282;-85
2022/03/28 21:56:07;;;;;;;17.83;11.80;;;7.90;99.90;;;;;;10394694;28;20201;-80
2022/03/28 22:01:29;;;;;;;17.57;10.97;;;7.90;99.90;;;;;;10380703;28;20222;-79
2022/03/28 22:06:51;;;;;;;22.17;12.47;;;7.80;99.90;;;;;;10394787;28;20202;-80
2022/03/28 22:12:12;;;;;;;19.07;11.63;;;7.80;99.90;;;;;;10394219;28;20200;-79
2022/03/28 22:17:38;;;;;;;20.07;11.27;;;7.90;99.90;;;;;;10395510;28;20373;-81
2022/03/28 22:23:00;;;;;;;18.73;10.73;;;7.90;99.90;;;;;;10365133;28;20254;-81
2022/03/28 22:28:22;;;;;;;15.87;11.07;;;7.90;99.90;;;;;;10384325;28;20209;-85
2022/03/28 22:33:43;;;;;;;17.30;11.17;;;8.00;99.90;;;;;;10395391;28;20221;-84
2022/03/28 22:39:06;;;;;;;17.30;10.80;;;7.80;99.90;;;;;;10395584;28;20241;-80
2022/03/28 22:44:28;;;;;;;17.63;11.13;;;7.80;99.90;;;;;;10401426;28;20363;-80
2022/03/28 22:49:50;;;;;;;17.37;10.23;;;7.70;99.90;;;;;;10401535;28;20245;-80
2022/03/28 22:55:13;;;;;;;17.67;10.63;;;7.60;99.90;;;;;;10387636;28;20228;-79
2022/03/28 23:00:35;;;;;;;14.23;10.63;;;7.70;99.90;;;;;;10401030;28;20533;-80
2022/03/28 23:05:57;;;;;;;15.27;10.87;;;7.60;99.90;;;;;;10387073;28;20225;-79
2022/03/28 23:11:19;;;;;;;17.73;11.50;;;7.60;99.90;;;;;;10373161;28;20293;-86
2022/03/28 23:16:40;;;;;;;20.60;11.23;;;7.50;99.90;;;;;;10386601;28;20239;-84
2022/03/28 23:22:03;;;;;;;18.10;11.10;;;7.50;99.90;;;;;;10381811;28;20235;-86
2022/03/28 23:27:26;;;;;;;16.90;11.60;;;7.40;99.90;;;;;;10382248;28;20205;-85
2022/03/28 23:32:49;;;;;;;16.23;11.37;;;7.40;99.90;;;;;;10385762;28;20194;-85
2022/03/28 23:38:11;;;;;;;22.73;12.37;;;7.40;99.90;;;;;;10399126;28;20611;-86
2022/03/28 23:43:33;;;;;;;21.07;13.10;;;7.50;99.90;;;;;;10398529;28;20364;-80
2022/03/28 23:48:55;;;;;;;18.50;12.10;;;7.50;99.90;;;;;;10399172;28;20209;-79
2022/03/28 23:54:17;;;;;;;21.90;13.57;;;7.50;99.90;;;;;;10384926;28;20491;-79
2022/03/28 23:59:39;;;;;;;21.70;13.93;;;7.60;99.90;;;;;;10398578;28;20240;-80
